createdAt,value
2022-12-31T00:00:53.974Z,8.48
2022-12-31T00:03:22.100Z,11.90
2022-12-31T00:05:50.773Z,8.82
2022-12-31T00:08:20.399Z,9.45
2022-12-31T00:10:48.310Z,8.55
2022-12-31T00:13:16.789Z,8.02
2022-12-31T00:15:46.399Z,7.97
2022-12-31T00:18:17.249Z,11.18
2022-12-31T00:20:45.257Z,8.82
2022-12-31T00:23:13.461Z,7.65
2022-12-31T00:25:41.683Z,12.65
2022-12-31T00:28:10.087Z,7.00
2022-12-31T00:30:38.682Z,11.90
2022-12-31T00:33:06.632Z,10.68
2022-12-31T00:35:36.492Z,11.70
2022-12-31T00:38:04.626Z,8.40
2022-12-31T00:40:32.483Z,10.73
2022-12-31T00:43:01.939Z,11.05
2022-12-31T00:45:30.538Z,8.02
2022-12-31T00:47:58.721Z,7.72
2022-12-31T00:50:26.708Z,7.03
2022-12-31T00:52:55.982Z,7.53
2022-12-31T00:55:23.839Z,5.53
2022-12-31T00:57:51.961Z,8.20
2022-12-31T01:00:20.448Z,12.60
2022-12-31T01:02:48.420Z,8.27
2022-12-31T01:05:19.009Z,8.02
2022-12-31T01:07:47.060Z,14.00
2022-12-31T01:10:37.687Z,12.13
2022-12-31T01:13:06.105Z,10.35
2022-12-31T01:15:35.694Z,9.35
2022-12-31T01:18:05.240Z,8.07
2022-12-31T01:20:37.682Z,14.05
2022-12-31T01:23:06.155Z,11.43
2022-12-31T01:25:37.984Z,6.65
2022-12-31T01:28:08.262Z,11.30
2022-12-31T01:30:41.178Z,11.52
2022-12-31T01:33:10.753Z,10.02
2022-12-31T01:35:38.652Z,11.68
2022-12-31T01:38:06.433Z,10.05
2022-12-31T01:40:39.730Z,10.88
2022-12-31T01:43:14.545Z,7.40
2022-12-31T01:45:44.274Z,13.77
2022-12-31T01:48:14.820Z,13.27
2022-12-31T01:50:44.674Z,13.07
2022-12-31T01:53:13.450Z,10.32
2022-12-31T01:55:49.035Z,12.32
2022-12-31T01:58:21.391Z,9.77
2022-12-31T02:00:50.558Z,10.68
2022-12-31T02:03:18.703Z,12.07
2022-12-31T02:05:52.703Z,17.75
2022-12-31T02:08:21.897Z,14.00
2022-12-31T02:10:51.073Z,11.70
2022-12-31T02:13:19.239Z,9.25
2022-12-31T02:15:55.797Z,13.65
2022-12-31T02:18:32.813Z,6.25
2022-12-31T02:21:30.600Z,12.38
2022-12-31T02:24:43.197Z,11.80
2022-12-31T02:27:20.715Z,10.95
2022-12-31T02:30:08.220Z,8.25
2022-12-31T02:32:55.456Z,9.35
2022-12-31T02:35:30.397Z,11.10
2022-12-31T02:38:04.089Z,9.07
2022-12-31T02:40:36.175Z,10.38
2022-12-31T02:43:04.643Z,11.77
2022-12-31T02:45:38.918Z,12.05
2022-12-31T02:48:23.060Z,14.82
2022-12-31T02:51:02.287Z,12.13
2022-12-31T02:53:54.325Z,9.25
2022-12-31T02:56:28.923Z,17.15
2022-12-31T02:59:22.145Z,6.05
2022-12-31T03:02:20.256Z,9.38
2022-12-31T03:04:52.537Z,11.13
2022-12-31T03:07:24.614Z,11.35
2022-12-31T03:09:53.027Z,8.88
2022-12-31T03:12:41.366Z,13.07
2022-12-31T03:15:20.453Z,12.60
2022-12-31T03:17:56.708Z,17.45
2022-12-31T03:20:44.925Z,8.00
2022-12-31T03:23:15.371Z,8.40
2022-12-31T03:25:43.388Z,11.88
2022-12-31T03:28:13.260Z,2.03
2022-12-31T03:30:43.347Z,10.68
2022-12-31T03:33:13.126Z,7.30
2022-12-31T03:35:43.123Z,10.38
2022-12-31T03:38:11.524Z,10.50
2022-12-31T03:40:41.541Z,8.75
2022-12-31T03:43:09.453Z,9.38
2022-12-31T03:45:38.505Z,12.90
2022-12-31T03:48:08.926Z,10.95
2022-12-31T03:50:38.447Z,10.32
2022-12-31T03:53:06.586Z,10.65
2022-12-31T03:55:34.588Z,10.65
2022-12-31T03:58:03.062Z,14.45
2022-12-31T04:00:31.170Z,9.25
2022-12-31T04:02:59.156Z,6.10
2022-12-31T04:05:27.376Z,8.98
2022-12-31T04:07:56.932Z,17.52
2022-12-31T04:10:24.832Z,12.23
2022-12-31T04:12:53.130Z,7.43
2022-12-31T04:15:22.506Z,11.40
2022-12-31T04:17:50.770Z,22.00
2022-12-31T04:20:19.109Z,7.38
2022-12-31T04:22:46.923Z,9.65
2022-12-31T04:25:16.420Z,8.25
2022-12-31T04:27:44.664Z,10.90
2022-12-31T04:30:14.168Z,10.38
2022-12-31T04:32:42.498Z,9.98
2022-12-31T04:35:12.315Z,16.83
2022-12-31T04:37:40.428Z,8.85
2022-12-31T04:40:09.984Z,11.80
2022-12-31T04:42:39.531Z,15.18
2022-12-31T04:45:08.718Z,9.80
2022-12-31T04:47:36.958Z,3.33
2022-12-31T04:50:05.789Z,13.05
2022-12-31T04:52:40.321Z,9.25
2022-12-31T04:55:11.184Z,6.00
2022-12-31T04:57:40.589Z,7.53
2022-12-31T05:00:09.897Z,17.67
2022-12-31T05:02:38.764Z,19.58
2022-12-31T05:05:07.703Z,16.92
2022-12-31T05:07:35.759Z,7.63
2022-12-31T05:10:04.083Z,9.85
2022-12-31T05:12:32.336Z,8.25
2022-12-31T05:15:01.756Z,9.25
2022-12-31T05:17:30.557Z,7.45
2022-12-31T05:19:58.523Z,6.78
2022-12-31T05:22:32.790Z,11.98
2022-12-31T05:25:04.146Z,10.10
2022-12-31T05:27:32.757Z,9.95
2022-12-31T05:30:02.126Z,11.82
2022-12-31T05:32:30.252Z,9.90
2022-12-31T05:34:59.830Z,12.27
2022-12-31T05:37:28.051Z,26.52
2022-12-31T05:39:56.280Z,10.85
2022-12-31T05:42:25.257Z,9.75
2022-12-31T05:44:53.115Z,9.70
2022-12-31T05:47:22.733Z,8.77
2022-12-31T05:49:51.855Z,18.17
2022-12-31T05:52:20.975Z,15.32
2022-12-31T05:54:49.333Z,12.98
2022-12-31T05:57:19.651Z,12.77
2022-12-31T05:59:47.777Z,11.63
2022-12-31T06:02:16.000Z,10.23
2022-12-31T06:04:47.412Z,10.40
2022-12-31T06:07:15.706Z,11.60
2022-12-31T06:09:44.982Z,10.35
2022-12-31T06:12:14.060Z,22.08
2022-12-31T06:14:45.723Z,16.48
2022-12-31T06:17:15.074Z,11.25
2022-12-31T06:19:45.858Z,7.93
2022-12-31T06:22:13.970Z,10.82
2022-12-31T06:24:42.837Z,12.98
2022-12-31T06:27:12.256Z,9.68
2022-12-31T06:29:40.691Z,10.07
2022-12-31T06:32:09.622Z,10.60
2022-12-31T06:34:37.941Z,9.07
2022-12-31T06:37:07.314Z,3.30
2022-12-31T06:39:36.750Z,9.02
2022-12-31T06:42:04.829Z,11.57
2022-12-31T06:44:32.832Z,11.02
2022-12-31T06:47:01.118Z,7.60
2022-12-31T06:49:29.016Z,13.43
2022-12-31T06:51:57.606Z,14.60
2022-12-31T06:54:27.258Z,10.40
2022-12-31T06:56:55.864Z,12.38
2022-12-31T06:59:28.833Z,6.45
2022-12-31T07:02:23.578Z,10.68
2022-12-31T07:05:10.436Z,12.15
2022-12-31T07:07:49.706Z,10.05
2022-12-31T07:10:30.167Z,7.32
2022-12-31T07:13:13.928Z,9.52
2022-12-31T07:15:53.194Z,8.18
2022-12-31T07:18:30.511Z,11.70
2022-12-31T07:21:01.153Z,9.70
2022-12-31T07:23:30.079Z,9.85
2022-12-31T07:26:07.431Z,8.98
2022-12-31T07:28:47.779Z,11.27
2022-12-31T07:31:26.053Z,13.82
2022-12-31T07:34:00.790Z,10.60
2022-12-31T07:36:47.290Z,9.70
2022-12-31T07:39:23.550Z,8.48
2022-12-31T07:42:00.358Z,12.48
2022-12-31T07:44:39.503Z,8.82
2022-12-31T07:47:20.600Z,12.38
2022-12-31T07:49:49.522Z,10.55
2022-12-31T07:52:18.983Z,11.35
2022-12-31T07:54:47.130Z,11.82
2022-12-31T07:57:18.875Z,7.70
2022-12-31T07:59:58.497Z,10.43
2022-12-31T08:02:41.204Z,8.25
2022-12-31T08:05:17.831Z,11.02
2022-12-31T08:07:56.614Z,8.52
2022-12-31T08:10:33.649Z,14.18
2022-12-31T08:13:06.973Z,13.73
2022-12-31T08:15:36.673Z,13.52
2022-12-31T08:18:05.253Z,18.65
2022-12-31T08:20:35.515Z,14.05
2022-12-31T08:23:23.514Z,11.85
2022-12-31T08:26:03.140Z,12.98
2022-12-31T08:28:50.544Z,12.40
2022-12-31T08:31:22.553Z,11.23
2022-12-31T08:34:03.877Z,10.27
2022-12-31T08:36:44.706Z,11.55
2022-12-31T08:39:23.846Z,13.18
2022-12-31T08:41:56.483Z,12.98
2022-12-31T08:44:36.642Z,13.93
2022-12-31T08:47:15.233Z,9.73
2022-12-31T08:49:44.926Z,6.28
2022-12-31T08:52:18.373Z,11.63
2022-12-31T08:54:46.945Z,13.35
2022-12-31T08:57:22.772Z,9.13
2022-12-31T09:00:08.783Z,6.80
2022-12-31T09:02:53.713Z,10.18
2022-12-31T09:05:26.661Z,12.60
2022-12-31T09:08:06.651Z,9.75
2022-12-31T09:10:41.424Z,13.45
2022-12-31T09:13:16.519Z,10.95
2022-12-31T09:15:54.263Z,19.75
2022-12-31T09:18:29.747Z,19.40
2022-12-31T09:21:01.732Z,26.25
2022-12-31T09:23:32.648Z,13.70
2022-12-31T09:26:13.245Z,19.08
2022-12-31T09:28:48.451Z,11.65
2022-12-31T09:31:24.648Z,11.35
2022-12-31T09:34:00.813Z,11.07
2022-12-31T09:36:36.040Z,18.08
2022-12-31T09:39:10.884Z,13.32
2022-12-31T09:42:29.929Z,8.13
2022-12-31T09:45:23.737Z,10.93
2022-12-31T09:48:24.440Z,12.15
2022-12-31T09:51:09.882Z,8.25
2022-12-31T09:53:43.046Z,10.10
2022-12-31T09:56:22.107Z,11.48
2022-12-31T09:59:00.398Z,9.20
2022-12-31T10:01:41.681Z,10.73
2022-12-31T10:04:37.215Z,13.45
2022-12-31T10:07:21.731Z,22.45
2022-12-31T10:10:09.297Z,17.63
2022-12-31T10:13:20.164Z,13.13
2022-12-31T10:16:12.937Z,8.77
2022-12-31T10:19:01.444Z,15.88
2022-12-31T10:21:50.780Z,8.65
2022-12-31T10:24:37.772Z,15.15
2022-12-31T10:27:22.817Z,13.07
2022-12-31T10:29:59.916Z,9.68
2022-12-31T10:32:41.646Z,11.05
2022-12-31T10:35:30.589Z,14.75
2022-12-31T10:38:12.344Z,15.13
2022-12-31T10:41:10.543Z,15.57
2022-12-31T10:44:14.148Z,13.98
2022-12-31T10:47:01.866Z,17.45
2022-12-31T10:50:19.170Z,19.73
2022-12-31T10:53:26.874Z,14.73
2022-12-31T10:56:15.929Z,9.02
2022-12-31T10:59:17.228Z,11.95
2022-12-31T11:01:50.863Z,8.85
2022-12-31T11:04:55.295Z,12.57
2022-12-31T11:07:47.923Z,18.15
2022-12-31T11:10:53.741Z,14.77
2022-12-31T11:13:57.128Z,11.25
2022-12-31T11:19:31.582Z,13.93
2022-12-31T11:22:20.513Z,13.85
2022-12-31T11:25:09.297Z,9.95
2022-12-31T11:27:51.212Z,18.10
2022-12-31T11:30:24.290Z,15.88
2022-12-31T11:33:17.046Z,14.63
2022-12-31T11:36:06.588Z,8.52
2022-12-31T11:38:38.978Z,15.73
2022-12-31T11:41:10.876Z,20.15
2022-12-31T11:43:45.091Z,17.98
2022-12-31T11:46:35.608Z,10.43
2022-12-31T11:49:18.292Z,12.73
2022-12-31T11:52:07.754Z,15.40
2022-12-31T11:54:54.541Z,14.20
2022-12-31T11:57:27.928Z,11.93
2022-12-31T12:00:06.076Z,19.08
2022-12-31T12:02:37.680Z,22.77
2022-12-31T12:05:10.962Z,12.68
2022-12-31T12:07:40.521Z,16.27
2022-12-31T12:10:18.905Z,20.48
2022-12-31T12:12:47.223Z,21.92
2022-12-31T12:15:20.167Z,10.48
2022-12-31T12:17:53.352Z,17.83
2022-12-31T12:20:28.209Z,19.88
2022-12-31T12:23:00.160Z,17.98
2022-12-31T12:25:39.539Z,22.92
2022-12-31T12:28:23.107Z,29.05
2022-12-31T12:30:59.656Z,19.83
2022-12-31T12:33:30.134Z,32.83
2022-12-31T12:36:08.956Z,17.45
2022-12-31T12:38:39.373Z,38.20
2022-12-31T12:41:13.380Z,20.38
2022-12-31T12:43:41.554Z,14.13
2022-12-31T12:46:21.070Z,28.27
2022-12-31T12:48:55.627Z,15.45
2022-12-31T12:51:46.843Z,16.63
2022-12-31T12:54:30.547Z,24.23
2022-12-31T12:57:05.853Z,15.18
2022-12-31T12:59:57.017Z,17.55
2022-12-31T13:02:57.693Z,20.05
2022-12-31T13:05:39.751Z,20.30
2022-12-31T13:08:21.864Z,24.73
2022-12-31T13:11:01.729Z,18.05
2022-12-31T13:13:41.711Z,21.13
2022-12-31T13:16:18.064Z,23.88
2022-12-31T13:18:56.056Z,17.25
2022-12-31T13:21:35.023Z,21.52
2022-12-31T13:24:11.658Z,12.15
2022-12-31T13:26:48.690Z,30.05
2022-12-31T13:29:20.898Z,22.52
2022-12-31T13:31:51.353Z,19.65
2022-12-31T13:34:24.096Z,27.92
2022-12-31T13:36:54.508Z,14.68
2022-12-31T13:39:26.572Z,18.63
2022-12-31T13:42:00.892Z,14.65
2022-12-31T13:44:32.238Z,26.67
2022-12-31T13:47:08.246Z,15.27
2022-12-31T13:49:43.314Z,13.43
2022-12-31T13:52:26.098Z,18.02
2022-12-31T13:54:57.835Z,21.90
2022-12-31T13:57:38.081Z,17.48
2022-12-31T14:00:13.952Z,22.00
2022-12-31T14:02:49.305Z,16.65
2022-12-31T14:05:24.040Z,20.58
2022-12-31T14:07:56.488Z,16.92
2022-12-31T14:10:34.638Z,19.27
2022-12-31T14:13:20.968Z,18.23
2022-12-31T14:15:59.385Z,20.95
2022-12-31T14:18:34.729Z,37.03
2022-12-31T14:21:12.667Z,20.83
2022-12-31T14:23:49.583Z,22.10
2022-12-31T14:26:23.900Z,23.40
2022-12-31T14:29:02.858Z,20.02
2022-12-31T14:31:45.943Z,20.10
2022-12-31T14:34:20.392Z,10.05
2022-12-31T14:36:58.658Z,23.63
2022-12-31T14:39:40.949Z,22.17
2022-12-31T14:42:19.729Z,16.95
2022-12-31T14:45:03.448Z,26.75
2022-12-31T14:47:45.629Z,16.95
2022-12-31T14:50:17.843Z,19.67
2022-12-31T14:52:51.591Z,19.40
2022-12-31T14:55:29.915Z,24.70
2022-12-31T14:58:27.138Z,25.58
2022-12-31T15:00:56.093Z,20.65
2022-12-31T15:03:26.882Z,21.33
2022-12-31T15:06:00.680Z,24.08
2022-12-31T15:08:40.802Z,40.85
2022-12-31T15:11:24.297Z,27.00
2022-12-31T15:14:09.764Z,30.33
2022-12-31T15:16:52.301Z,26.15
2022-12-31T15:20:01.787Z,11.45
2022-12-31T15:22:41.449Z,28.77
2022-12-31T15:25:25.510Z,34.08
2022-12-31T15:27:54.406Z,24.02
2022-12-31T15:30:35.431Z,12.98
2022-12-31T15:33:08.008Z,23.05
2022-12-31T15:35:47.503Z,21.70
2022-12-31T15:38:34.616Z,30.00
2022-12-31T15:41:13.740Z,18.65
2022-12-31T15:43:48.359Z,19.92
2022-12-31T15:46:19.688Z,17.92
2022-12-31T15:48:56.567Z,25.85
2022-12-31T15:51:30.675Z,17.58
2022-12-31T15:54:01.293Z,28.63
2022-12-31T15:56:36.107Z,21.40
2022-12-31T15:59:07.688Z,34.15
2022-12-31T16:01:37.459Z,11.27
2022-12-31T16:04:15.434Z,21.77
2022-12-31T16:06:48.905Z,22.67
2022-12-31T16:09:22.880Z,18.90
2022-12-31T16:11:51.904Z,19.80
2022-12-31T16:14:24.511Z,22.90
2022-12-31T16:16:54.980Z,10.30
2022-12-31T16:19:34.253Z,18.83
2022-12-31T16:22:07.785Z,19.75
2022-12-31T16:24:48.871Z,22.08
2022-12-31T16:27:26.926Z,26.63
2022-12-31T16:30:01.569Z,8.30
2022-12-31T16:32:36.695Z,16.85
2022-12-31T16:35:23.729Z,18.92
2022-12-31T16:38:02.350Z,19.60
2022-12-31T16:40:31.201Z,23.52
2022-12-31T16:42:59.002Z,21.30
2022-12-31T16:45:33.860Z,12.63
2022-12-31T16:48:16.582Z,25.25
2022-12-31T16:50:48.542Z,20.02
2022-12-31T16:53:20.739Z,16.30
2022-12-31T16:55:55.927Z,27.52
2022-12-31T16:58:29.216Z,25.27
2022-12-31T17:01:05.266Z,20.23
2022-12-31T17:03:33.554Z,23.48
2022-12-31T17:06:15.060Z,23.05
2022-12-31T17:08:45.239Z,43.90
2022-12-31T17:11:23.564Z,14.13
2022-12-31T17:13:56.957Z,23.30
2022-12-31T17:16:25.953Z,23.95
2022-12-31T17:18:53.997Z,9.82
2022-12-31T17:21:27.220Z,18.55
2022-12-31T17:23:57.529Z,21.20
2022-12-31T17:26:28.057Z,25.08
2022-12-31T17:28:58.685Z,19.30
2022-12-31T17:31:35.653Z,21.35
2022-12-31T17:34:21.940Z,15.00
2022-12-31T17:37:01.538Z,19.73
2022-12-31T17:39:43.497Z,19.20
2022-12-31T17:42:13.131Z,18.17
2022-12-31T17:44:44.222Z,18.02
2022-12-31T17:47:15.241Z,23.08
2022-12-31T17:49:46.488Z,17.30
2022-12-31T17:52:17.508Z,21.42
2022-12-31T17:54:45.330Z,13.73
2022-12-31T17:57:26.119Z,26.25
2022-12-31T17:59:54.506Z,6.97
2022-12-31T18:02:22.414Z,18.00
2022-12-31T18:04:50.954Z,13.15
2022-12-31T18:07:20.093Z,15.82
2022-12-31T18:09:47.854Z,20.95
2022-12-31T18:12:17.021Z,11.13
2022-12-31T18:14:46.566Z,13.10
2022-12-31T18:17:17.391Z,21.02
2022-12-31T18:20:04.226Z,17.52
2022-12-31T18:22:35.434Z,20.63
2022-12-31T18:25:04.236Z,16.52
2022-12-31T18:27:33.979Z,19.35
2022-12-31T18:30:04.977Z,17.52
2022-12-31T18:32:35.382Z,16.02
2022-12-31T18:35:03.524Z,19.80
2022-12-31T18:37:33.152Z,22.40
2022-12-31T18:40:02.308Z,20.55
2022-12-31T18:42:30.977Z,19.63
2022-12-31T18:44:58.773Z,23.98
2022-12-31T18:47:26.514Z,8.68
2022-12-31T18:49:54.328Z,17.20
2022-12-31T18:52:25.033Z,20.58
2022-12-31T18:54:52.867Z,17.17
2022-12-31T18:57:22.484Z,18.33
2022-12-31T18:59:50.362Z,9.00
2022-12-31T19:02:20.782Z,20.63
2022-12-31T19:04:49.655Z,15.85
2022-12-31T19:07:17.453Z,19.67
2022-12-31T19:09:46.319Z,19.63
2022-12-31T19:12:16.377Z,17.60
2022-12-31T19:14:45.653Z,16.95
2022-12-31T19:17:13.499Z,18.40
2022-12-31T19:19:41.743Z,13.23
2022-12-31T19:22:16.032Z,11.68
2022-12-31T19:24:44.432Z,19.75
2022-12-31T19:27:17.055Z,17.05
2022-12-31T19:29:46.252Z,13.15
2022-12-31T19:32:14.038Z,11.30
2022-12-31T19:34:41.786Z,17.70
2022-12-31T19:37:13.101Z,14.68
2022-12-31T19:39:40.860Z,17.15
2022-12-31T19:42:15.908Z,18.75
2022-12-31T19:44:43.653Z,16.00
2022-12-31T19:47:14.060Z,14.15
2022-12-31T19:49:42.288Z,17.05
2022-12-31T19:52:10.090Z,15.55
2022-12-31T19:54:38.409Z,17.27
2022-12-31T19:57:06.639Z,21.63
2022-12-31T19:59:34.398Z,16.88
2022-12-31T20:02:02.987Z,17.98
2022-12-31T20:04:32.656Z,12.32
2022-12-31T20:07:00.459Z,12.98
2022-12-31T20:09:28.291Z,15.95
2022-12-31T20:11:56.454Z,19.48
2022-12-31T20:14:24.303Z,14.85
2022-12-31T20:16:52.694Z,16.95
2022-12-31T20:19:20.869Z,17.20
2022-12-31T20:21:50.001Z,19.20
2022-12-31T20:24:18.020Z,26.00
2022-12-31T20:26:46.078Z,17.55
2022-12-31T20:29:13.872Z,17.92
2022-12-31T20:31:41.665Z,17.83
2022-12-31T20:34:10.638Z,14.50
2022-12-31T20:36:39.020Z,27.27
2022-12-31T20:39:08.538Z,15.93
2022-12-31T20:41:36.405Z,16.77
2022-12-31T20:44:04.533Z,20.52
2022-12-31T20:46:32.449Z,22.00
2022-12-31T20:49:02.529Z,24.92
2022-12-31T20:51:34.059Z,21.70
2022-12-31T20:54:04.865Z,23.35
2022-12-31T20:56:36.362Z,14.60
2022-12-31T20:59:05.992Z,24.45
2022-12-31T21:01:55.502Z,20.70
2022-12-31T21:04:22.533Z,18.50
2022-12-31T21:06:52.334Z,19.85
2022-12-31T21:09:20.138Z,19.98
2022-12-31T21:12:06.973Z,17.05
2022-12-31T21:14:36.566Z,14.82
2022-12-31T21:17:08.141Z,18.38
2022-12-31T21:19:35.930Z,19.15
2022-12-31T21:22:03.743Z,20.35
2022-12-31T21:24:31.966Z,19.80
2022-12-31T21:27:01.101Z,18.25
2022-12-31T21:29:34.031Z,20.40
2022-12-31T21:32:02.723Z,22.75
2022-12-31T21:34:30.555Z,22.65
2022-12-31T21:36:59.075Z,21.10
2022-12-31T21:39:26.911Z,24.42
2022-12-31T21:41:54.742Z,20.95
2022-12-31T21:44:25.421Z,25.38
2022-12-31T21:47:35.338Z,17.08
2022-12-31T21:50:05.642Z,22.50
2022-12-31T21:52:35.487Z,23.38
2022-12-31T21:55:22.594Z,24.63
2022-12-31T22:00:58.484Z,19.55
2022-12-31T22:03:28.203Z,18.10
2022-12-31T22:05:59.670Z,28.20
2022-12-31T22:08:28.870Z,24.23
2022-12-31T22:10:56.808Z,19.30
2022-12-31T22:13:25.255Z,15.40
2022-12-31T22:16:04.218Z,18.75
2022-12-31T22:18:34.422Z,20.45
2022-12-31T22:21:04.076Z,25.20
2022-12-31T22:23:33.065Z,21.42
2022-12-31T22:26:01.336Z,21.77
2022-12-31T22:28:38.799Z,22.60
2022-12-31T22:31:09.244Z,17.08
2022-12-31T22:33:37.184Z,13.95
2022-12-31T22:36:06.998Z,15.40
2022-12-31T22:38:35.677Z,18.92
2022-12-31T22:41:06.601Z,13.23
2022-12-31T22:43:34.951Z,16.48
2022-12-31T22:46:12.097Z,19.48
2022-12-31T22:48:40.322Z,14.00
2022-12-31T22:51:09.092Z,16.02
2022-12-31T22:53:38.581Z,25.98
2022-12-31T22:56:07.079Z,21.92
2022-12-31T22:58:35.189Z,36.35
2022-12-31T23:01:07.091Z,38.55
2022-12-31T23:03:36.439Z,48.75
2022-12-31T23:06:04.230Z,38.47
2022-12-31T23:08:32.028Z,80.07
2022-12-31T23:11:05.713Z,202.02
2022-12-31T23:13:56.434Z,172.13
2022-12-31T23:16:42.128Z,306.30
2022-12-31T23:19:29.638Z,89.88
2022-12-31T23:22:15.555Z,60.50
2022-12-31T23:24:44.019Z,55.47
2022-12-31T23:27:12.844Z,48.72
2022-12-31T23:29:46.602Z,48.47
2022-12-31T23:32:15.715Z,42.72
2022-12-31T23:34:45.739Z,34.78
2022-12-31T23:37:13.781Z,43.08
2022-12-31T23:39:42.260Z,42.08
2022-12-31T23:42:10.725Z,41.42
2022-12-31T23:44:38.492Z,39.67
2022-12-31T23:47:06.935Z,34.63
2022-12-31T23:49:34.777Z,29.17
2022-12-31T23:52:04.091Z,27.45
2022-12-31T23:54:31.877Z,115.63
2022-12-31T23:56:59.644Z,35.88
2022-12-31T23:59:27.435Z,30.83
